sensor_id;sensor_type;location;lat;lon;timestamp;P1;durP1;ratioP1;P2;durP2;ratioP2
11471;SDS011;47430;50.808;4.388;2022-12-07T00:00:34;25.97;;;13.70;;
11471;SDS011;47430;50.808;4.388;2022-12-07T00:03:00;20.60;;;12.70;;
11471;SDS011;47430;50.808;4.388;2022-12-07T00:05:26;25.17;;;13.23;;
11471;SDS011;47430;50.808;4.388;2022-12-07T00:07:52;23.93;;;13.10;;
11471;SDS011;47430;50.808;4.388;2022-12-07T00:10:18;25.90;;;13.30;;
11471;SDS011;47430;50.808;4.388;2022-12-07T00:12:44;23.80;;;12.83;;
11471;SDS011;47430;50.808;4.388;2022-12-07T00:15:10;23.67;;;14.13;;
11471;SDS011;47430;50.808;4.388;2022-12-07T00:17:36;26.03;;;14.43;;
11471;SDS011;47430;50.808;4.388;2022-12-07T00:20:02;24.43;;;14.57;;
11471;SDS011;47430;50.808;4.388;2022-12-07T00:22:28;28.10;;;14.37;;
11471;SDS011;47430;50.808;4.388;2022-12-07T00:24:55;30.33;;;14.80;;
11471;SDS011;47430;50.808;4.388;2022-12-07T00:27:24;30.57;;;14.77;;
11471;SDS011;47430;50.808;4.388;2022-12-07T00:29:50;28.30;;;14.97;;
11471;SDS011;47430;50.808;4.388;2022-12-07T00:32:16;27.90;;;16.03;;
11471;SDS011;47430;50.808;4.388;2022-12-07T00:34:42;25.57;;;14.90;;
11471;SDS011;47430;50.808;4.388;2022-12-07T00:37:08;23.97;;;14.43;;
11471;SDS011;47430;50.808;4.388;2022-12-07T00:39:34;27.23;;;14.83;;
11471;SDS011;47430;50.808;4.388;2022-12-07T00:42:00;27.93;;;15.07;;
11471;SDS011;47430;50.808;4.388;2022-12-07T00:44:26;28.53;;;15.67;;
11471;SDS011;47430;50.808;4.388;2022-12-07T00:46:52;28.13;;;15.17;;
11471;SDS011;47430;50.808;4.388;2022-12-07T00:49:19;26.70;;;15.57;;
11471;SDS011;47430;50.808;4.388;2022-12-07T00:51:47;28.93;;;15.63;;
11471;SDS011;47430;50.808;4.388;2022-12-07T00:54:13;27.93;;;14.77;;
11471;SDS011;47430;50.808;4.388;2022-12-07T00:56:39;29.90;;;15.40;;
11471;SDS011;47430;50.808;4.388;2022-12-07T00:59:06;26.47;;;14.83;;
11471;SDS011;47430;50.808;4.388;2022-12-07T01:01:34;29.10;;;16.37;;
11471;SDS011;47430;50.808;4.388;2022-12-07T01:04:01;25.10;;;15.00;;
11471;SDS011;47430;50.808;4.388;2022-12-07T01:06:27;26.47;;;16.43;;
11471;SDS011;47430;50.808;4.388;2022-12-07T01:08:54;30.50;;;15.00;;
11471;SDS011;47430;50.808;4.388;2022-12-07T01:11:21;27.70;;;14.93;;
11471;SDS011;47430;50.808;4.388;2022-12-07T01:13:49;25.03;;;14.10;;
11471;SDS011;47430;50.808;4.388;2022-12-07T01:16:16;28.03;;;14.80;;
11471;SDS011;47430;50.808;4.388;2022-12-07T01:18:44;24.00;;;14.67;;
11471;SDS011;47430;50.808;4.388;2022-12-07T01:21:15;29.67;;;14.20;;
11471;SDS011;47430;50.808;4.388;2022-12-07T01:23:41;25.27;;;13.97;;
11471;SDS011;47430;50.808;4.388;2022-12-07T01:26:10;29.57;;;15.23;;
11471;SDS011;47430;50.808;4.388;2022-12-07T01:28:39;28.27;;;14.30;;
11471;SDS011;47430;50.808;4.388;2022-12-07T01:31:10;27.20;;;15.23;;
11471;SDS011;47430;50.808;4.388;2022-12-07T01:33:37;27.87;;;14.40;;
11471;SDS011;47430;50.808;4.388;2022-12-07T01:36:04;32.13;;;16.10;;
11471;SDS011;47430;50.808;4.388;2022-12-07T01:38:30;30.03;;;15.87;;
11471;SDS011;47430;50.808;4.388;2022-12-07T01:40:57;26.97;;;14.20;;
11471;SDS011;47430;50.808;4.388;2022-12-07T01:43:23;28.17;;;15.20;;
11471;SDS011;47430;50.808;4.388;2022-12-07T01:45:51;26.93;;;14.97;;
11471;SDS011;47430;50.808;4.388;2022-12-07T01:48:18;27.77;;;15.40;;
11471;SDS011;47430;50.808;4.388;2022-12-07T01:50:47;28.97;;;15.40;;
11471;SDS011;47430;50.808;4.388;2022-12-07T01:53:14;29.80;;;14.93;;
11471;SDS011;47430;50.808;4.388;2022-12-07T01:55:41;30.43;;;16.07;;
11471;SDS011;47430;50.808;4.388;2022-12-07T01:58:08;30.47;;;15.17;;
11471;SDS011;47430;50.808;4.388;2022-12-07T02:00:35;31.07;;;15.07;;
11471;SDS011;47430;50.808;4.388;2022-12-07T02:03:08;30.33;;;14.67;;
11471;SDS011;47430;50.808;4.388;2022-12-07T02:05:35;35.50;;;16.23;;
11471;SDS011;47430;50.808;4.388;2022-12-07T02:08:02;29.40;;;15.37;;
11471;SDS011;47430;50.808;4.388;2022-12-07T02:10:29;29.43;;;15.57;;
11471;SDS011;47430;50.808;4.388;2022-12-07T02:13:03;31.93;;;15.67;;
11471;SDS011;47430;50.808;4.388;2022-12-07T02:20:39;24.67;;;14.23;;
11471;SDS011;47430;50.808;4.388;2022-12-07T02:30:45;26.00;;;13.90;;
11471;SDS011;47430;50.808;4.388;2022-12-07T02:33:19;24.13;;;14.67;;
11471;SDS011;47430;50.808;4.388;2022-12-07T02:35:49;23.57;;;13.87;;
11471;SDS011;47430;50.808;4.388;2022-12-07T02:38:20;21.23;;;13.17;;
11471;SDS011;47430;50.808;4.388;2022-12-07T02:40:52;24.57;;;14.17;;
11471;SDS011;47430;50.808;4.388;2022-12-07T02:43:26;21.70;;;12.07;;
11471;SDS011;47430;50.808;4.388;2022-12-07T02:45:54;22.83;;;12.47;;
11471;SDS011;47430;50.808;4.388;2022-12-07T02:48:21;26.17;;;13.23;;
11471;SDS011;47430;50.808;4.388;2022-12-07T02:50:51;23.33;;;14.03;;
11471;SDS011;47430;50.808;4.388;2022-12-07T02:56:04;24.60;;;14.43;;
11471;SDS011;47430;50.808;4.388;2022-12-07T03:01:04;25.27;;;13.33;;
11471;SDS011;47430;50.808;4.388;2022-12-07T03:03:34;23.27;;;13.80;;
11471;SDS011;47430;50.808;4.388;2022-12-07T03:06:04;24.70;;;13.87;;
11471;SDS011;47430;50.808;4.388;2022-12-07T03:13:28;21.43;;;13.10;;
11471;SDS011;47430;50.808;4.388;2022-12-07T03:18:29;23.43;;;14.27;;
11471;SDS011;47430;50.808;4.388;2022-12-07T03:20:58;22.67;;;12.97;;
11471;SDS011;47430;50.808;4.388;2022-12-07T03:23:26;23.47;;;13.13;;
11471;SDS011;47430;50.808;4.388;2022-12-07T03:25:55;24.53;;;13.87;;
11471;SDS011;47430;50.808;4.388;2022-12-07T03:28:23;27.83;;;14.70;;
11471;SDS011;47430;50.808;4.388;2022-12-07T03:30:57;25.07;;;15.07;;
11471;SDS011;47430;50.808;4.388;2022-12-07T03:33:32;22.93;;;13.90;;
11471;SDS011;47430;50.808;4.388;2022-12-07T03:36:04;23.47;;;13.27;;
11471;SDS011;47430;50.808;4.388;2022-12-07T03:38:40;29.93;;;15.00;;
11471;SDS011;47430;50.808;4.388;2022-12-07T03:41:09;26.07;;;13.87;;
11471;SDS011;47430;50.808;4.388;2022-12-07T03:43:36;25.77;;;14.17;;
11471;SDS011;47430;50.808;4.388;2022-12-07T03:48:41;26.57;;;14.73;;
11471;SDS011;47430;50.808;4.388;2022-12-07T03:51:54;23.63;;;13.23;;
11471;SDS011;47430;50.808;4.388;2022-12-07T03:54:11;26.80;;;13.60;;
11471;SDS011;47430;50.808;4.388;2022-12-07T03:56:39;22.73;;;12.53;;
11471;SDS011;47430;50.808;4.388;2022-12-07T03:59:06;22.63;;;12.77;;
11471;SDS011;47430;50.808;4.388;2022-12-07T04:01:32;21.80;;;12.90;;
11471;SDS011;47430;50.808;4.388;2022-12-07T04:03:58;21.43;;;13.37;;
11471;SDS011;47430;50.808;4.388;2022-12-07T04:06:24;20.80;;;12.30;;
11471;SDS011;47430;50.808;4.388;2022-12-07T04:08:50;25.13;;;13.73;;
11471;SDS011;47430;50.808;4.388;2022-12-07T04:11:16;21.80;;;13.17;;
11471;SDS011;47430;50.808;4.388;2022-12-07T04:13:42;24.17;;;13.17;;
11471;SDS011;47430;50.808;4.388;2022-12-07T04:16:27;24.27;;;13.70;;
11471;SDS011;47430;50.808;4.388;2022-12-07T04:18:53;22.57;;;13.20;;
11471;SDS011;47430;50.808;4.388;2022-12-07T04:21:19;25.90;;;13.80;;
11471;SDS011;47430;50.808;4.388;2022-12-07T04:23:45;26.40;;;13.63;;
11471;SDS011;47430;50.808;4.388;2022-12-07T04:26:11;24.57;;;13.30;;
11471;SDS011;47430;50.808;4.388;2022-12-07T04:28:37;23.53;;;13.57;;
11471;SDS011;47430;50.808;4.388;2022-12-07T04:31:03;25.97;;;14.27;;
11471;SDS011;47430;50.808;4.388;2022-12-07T04:33:29;22.77;;;12.57;;
11471;SDS011;47430;50.808;4.388;2022-12-07T04:35:56;23.10;;;14.37;;
11471;SDS011;47430;50.808;4.388;2022-12-07T04:38:22;28.57;;;13.93;;
11471;SDS011;47430;50.808;4.388;2022-12-07T04:40:48;27.50;;;14.23;;
11471;SDS011;47430;50.808;4.388;2022-12-07T04:43:14;26.53;;;14.47;;
11471;SDS011;47430;50.808;4.388;2022-12-07T04:45:45;23.13;;;13.40;;
11471;SDS011;47430;50.808;4.388;2022-12-07T04:48:11;22.73;;;14.63;;
11471;SDS011;47430;50.808;4.388;2022-12-07T04:50:37;26.10;;;15.73;;
11471;SDS011;47430;50.808;4.388;2022-12-07T04:53:03;32.50;;;16.20;;
11471;SDS011;47430;50.808;4.388;2022-12-07T04:55:29;33.30;;;15.37;;
11471;SDS011;47430;50.808;4.388;2022-12-07T04:57:55;23.93;;;13.93;;
11471;SDS011;47430;50.808;4.388;2022-12-07T05:00:21;25.30;;;14.57;;
11471;SDS011;47430;50.808;4.388;2022-12-07T05:02:47;24.57;;;13.87;;
11471;SDS011;47430;50.808;4.388;2022-12-07T05:05:13;29.77;;;14.87;;
11471;SDS011;47430;50.808;4.388;2022-12-07T05:07:39;28.77;;;15.90;;
11471;SDS011;47430;50.808;4.388;2022-12-07T05:10:05;25.23;;;15.43;;
11471;SDS011;47430;50.808;4.388;2022-12-07T05:12:31;23.27;;;14.03;;
11471;SDS011;47430;50.808;4.388;2022-12-07T05:14:57;24.60;;;14.30;;
11471;SDS011;47430;50.808;4.388;2022-12-07T05:17:23;21.57;;;13.47;;
11471;SDS011;47430;50.808;4.388;2022-12-07T05:19:50;26.10;;;13.30;;
11471;SDS011;47430;50.808;4.388;2022-12-07T05:22:16;24.30;;;13.47;;
11471;SDS011;47430;50.808;4.388;2022-12-07T05:24:42;23.00;;;12.63;;
11471;SDS011;47430;50.808;4.388;2022-12-07T05:27:08;25.90;;;14.57;;
11471;SDS011;47430;50.808;4.388;2022-12-07T05:29:34;25.67;;;13.73;;
11471;SDS011;47430;50.808;4.388;2022-12-07T05:32:00;24.43;;;13.23;;
11471;SDS011;47430;50.808;4.388;2022-12-07T05:34:26;24.17;;;13.67;;
11471;SDS011;47430;50.808;4.388;2022-12-07T05:36:52;27.67;;;14.20;;
11471;SDS011;47430;50.808;4.388;2022-12-07T05:39:18;27.60;;;13.47;;
11471;SDS011;47430;50.808;4.388;2022-12-07T05:41:44;21.80;;;12.60;;
11471;SDS011;47430;50.808;4.388;2022-12-07T05:44:29;24.27;;;12.97;;
11471;SDS011;47430;50.808;4.388;2022-12-07T05:46:55;23.17;;;13.27;;
11471;SDS011;47430;50.808;4.388;2022-12-07T05:49:21;26.50;;;14.63;;
11471;SDS011;47430;50.808;4.388;2022-12-07T05:51:47;24.13;;;14.30;;
11471;SDS011;47430;50.808;4.388;2022-12-07T05:54:14;20.90;;;13.53;;
11471;SDS011;47430;50.808;4.388;2022-12-07T05:56:40;28.77;;;15.30;;
11471;SDS011;47430;50.808;4.388;2022-12-07T05:59:05;23.57;;;14.23;;
11471;SDS011;47430;50.808;4.388;2022-12-07T06:01:53;29.53;;;15.17;;
11471;SDS011;47430;50.808;4.388;2022-12-07T06:04:20;26.37;;;13.90;;
11471;SDS011;47430;50.808;4.388;2022-12-07T06:06:46;25.37;;;14.57;;
11471;SDS011;47430;50.808;4.388;2022-12-07T06:09:12;22.57;;;13.77;;
11471;SDS011;47430;50.808;4.388;2022-12-07T06:11:39;26.23;;;12.93;;
11471;SDS011;47430;50.808;4.388;2022-12-07T06:14:23;21.13;;;12.97;;
11471;SDS011;47430;50.808;4.388;2022-12-07T06:16:50;26.53;;;15.03;;
11471;SDS011;47430;50.808;4.388;2022-12-07T06:19:16;24.03;;;13.13;;
11471;SDS011;47430;50.808;4.388;2022-12-07T06:21:42;26.73;;;13.27;;
11471;SDS011;47430;50.808;4.388;2022-12-07T06:24:09;30.53;;;13.43;;
11471;SDS011;47430;50.808;4.388;2022-12-07T06:26:36;25.03;;;12.83;;
11471;SDS011;47430;50.808;4.388;2022-12-07T06:29:02;22.30;;;12.83;;
11471;SDS011;47430;50.808;4.388;2022-12-07T06:31:28;22.40;;;13.57;;
11471;SDS011;47430;50.808;4.388;2022-12-07T06:34:01;22.33;;;13.23;;
11471;SDS011;47430;50.808;4.388;2022-12-07T06:36:28;22.33;;;13.77;;
11471;SDS011;47430;50.808;4.388;2022-12-07T06:38:54;22.20;;;12.40;;
11471;SDS011;47430;50.808;4.388;2022-12-07T06:41:20;22.87;;;12.90;;
11471;SDS011;47430;50.808;4.388;2022-12-07T06:43:46;21.13;;;12.40;;
11471;SDS011;47430;50.808;4.388;2022-12-07T06:46:13;21.97;;;12.50;;
11471;SDS011;47430;50.808;4.388;2022-12-07T06:48:39;29.27;;;13.23;;
11471;SDS011;47430;50.808;4.388;2022-12-07T06:51:05;20.77;;;12.17;;
11471;SDS011;47430;50.808;4.388;2022-12-07T06:53:31;17.97;;;12.23;;
11471;SDS011;47430;50.808;4.388;2022-12-07T06:55:57;22.13;;;11.63;;
11471;SDS011;47430;50.808;4.388;2022-12-07T06:58:23;26.27;;;12.37;;
11471;SDS011;47430;50.808;4.388;2022-12-07T07:00:49;18.63;;;11.83;;
11471;SDS011;47430;50.808;4.388;2022-12-07T07:03:16;20.57;;;12.00;;
11471;SDS011;47430;50.808;4.388;2022-12-07T07:05:42;22.50;;;11.53;;
11471;SDS011;47430;50.808;4.388;2022-12-07T07:08:08;21.30;;;11.13;;
11471;SDS011;47430;50.808;4.388;2022-12-07T07:10:34;18.77;;;10.93;;
11471;SDS011;47430;50.808;4.388;2022-12-07T07:13:00;23.03;;;12.13;;
11471;SDS011;47430;50.808;4.388;2022-12-07T07:15:27;20.87;;;11.93;;
11471;SDS011;47430;50.808;4.388;2022-12-07T07:17:53;19.97;;;12.40;;
11471;SDS011;47430;50.808;4.388;2022-12-07T07:20:19;17.13;;;11.47;;
11471;SDS011;47430;50.808;4.388;2022-12-07T07:22:45;19.20;;;10.80;;
11471;SDS011;47430;50.808;4.388;2022-12-07T07:25:11;22.27;;;12.20;;
11471;SDS011;47430;50.808;4.388;2022-12-07T07:27:37;22.53;;;11.50;;
11471;SDS011;47430;50.808;4.388;2022-12-07T07:30:04;18.07;;;11.17;;
11471;SDS011;47430;50.808;4.388;2022-12-07T07:32:30;21.37;;;10.90;;
11471;SDS011;47430;50.808;4.388;2022-12-07T07:34:56;18.13;;;11.27;;
11471;SDS011;47430;50.808;4.388;2022-12-07T07:37:22;19.30;;;10.87;;
11471;SDS011;47430;50.808;4.388;2022-12-07T07:39:48;19.07;;;10.97;;
11471;SDS011;47430;50.808;4.388;2022-12-07T07:42:15;18.97;;;10.40;;
11471;SDS011;47430;50.808;4.388;2022-12-07T07:44:41;18.20;;;11.07;;
11471;SDS011;47430;50.808;4.388;2022-12-07T07:47:07;20.20;;;12.43;;
11471;SDS011;47430;50.808;4.388;2022-12-07T07:49:36;17.03;;;11.03;;
11471;SDS011;47430;50.808;4.388;2022-12-07T07:52:02;21.33;;;11.23;;
11471;SDS011;47430;50.808;4.388;2022-12-07T07:54:28;23.67;;;11.27;;
11471;SDS011;47430;50.808;4.388;2022-12-07T07:56:54;18.80;;;11.53;;
11471;SDS011;47430;50.808;4.388;2022-12-07T07:59:21;18.33;;;10.73;;
11471;SDS011;47430;50.808;4.388;2022-12-07T08:01:47;21.47;;;11.30;;
11471;SDS011;47430;50.808;4.388;2022-12-07T08:04:13;19.83;;;11.37;;
11471;SDS011;47430;50.808;4.388;2022-12-07T08:06:39;22.67;;;11.57;;
11471;SDS011;47430;50.808;4.388;2022-12-07T08:09:07;18.70;;;11.43;;
11471;SDS011;47430;50.808;4.388;2022-12-07T08:11:33;18.50;;;10.77;;
11471;SDS011;47430;50.808;4.388;2022-12-07T08:14:00;21.37;;;11.63;;
11471;SDS011;47430;50.808;4.388;2022-12-07T08:16:26;20.40;;;11.33;;
11471;SDS011;47430;50.808;4.388;2022-12-07T08:18:52;18.20;;;11.20;;
11471;SDS011;47430;50.808;4.388;2022-12-07T08:21:19;30.03;;;13.17;;
11471;SDS011;47430;50.808;4.388;2022-12-07T08:23:45;23.73;;;12.37;;
11471;SDS011;47430;50.808;4.388;2022-12-07T08:26:12;24.57;;;12.70;;
11471;SDS011;47430;50.808;4.388;2022-12-07T08:28:39;22.87;;;13.63;;
11471;SDS011;47430;50.808;4.388;2022-12-07T08:31:07;26.10;;;13.73;;
11471;SDS011;47430;50.808;4.388;2022-12-07T08:33:33;23.00;;;13.53;;
11471;SDS011;47430;50.808;4.388;2022-12-07T08:36:01;22.93;;;12.87;;
11471;SDS011;47430;50.808;4.388;2022-12-07T08:38:27;23.27;;;12.63;;
11471;SDS011;47430;50.808;4.388;2022-12-07T08:40:54;24.20;;;12.63;;
11471;SDS011;47430;50.808;4.388;2022-12-07T08:43:20;23.77;;;12.43;;
11471;SDS011;47430;50.808;4.388;2022-12-07T08:45:47;20.33;;;12.10;;
11471;SDS011;47430;50.808;4.388;2022-12-07T08:48:14;27.27;;;12.23;;
11471;SDS011;47430;50.808;4.388;2022-12-07T08:50:42;21.27;;;12.13;;
11471;SDS011;47430;50.808;4.388;2022-12-07T08:53:09;26.40;;;12.07;;
11471;SDS011;47430;50.808;4.388;2022-12-07T08:55:35;23.83;;;11.37;;
11471;SDS011;47430;50.808;4.388;2022-12-07T08:58:01;19.47;;;12.80;;
11471;SDS011;47430;50.808;4.388;2022-12-07T09:00:27;21.03;;;11.73;;
11471;SDS011;47430;50.808;4.388;2022-12-07T09:02:53;22.10;;;11.93;;
11471;SDS011;47430;50.808;4.388;2022-12-07T09:05:20;21.23;;;10.87;;
11471;SDS011;47430;50.808;4.388;2022-12-07T09:07:48;20.40;;;11.23;;
11471;SDS011;47430;50.808;4.388;2022-12-07T09:10:15;17.97;;;10.17;;
11471;SDS011;47430;50.808;4.388;2022-12-07T09:12:42;17.70;;;10.07;;
11471;SDS011;47430;50.808;4.388;2022-12-07T09:15:08;13.60;;;9.20;;
11471;SDS011;47430;50.808;4.388;2022-12-07T09:17:34;25.37;;;9.53;;
11471;SDS011;47430;50.808;4.388;2022-12-07T09:20:01;21.40;;;9.93;;
11471;SDS011;47430;50.808;4.388;2022-12-07T09:22:28;16.77;;;9.77;;
11471;SDS011;47430;50.808;4.388;2022-12-07T09:24:55;15.73;;;9.30;;
11471;SDS011;47430;50.808;4.388;2022-12-07T09:27:21;17.53;;;10.13;;
11471;SDS011;47430;50.808;4.388;2022-12-07T09:29:47;15.77;;;9.40;;
11471;SDS011;47430;50.808;4.388;2022-12-07T09:32:14;18.60;;;9.70;;
11471;SDS011;47430;50.808;4.388;2022-12-07T09:34:40;22.47;;;9.57;;
11471;SDS011;47430;50.808;4.388;2022-12-07T09:37:06;14.77;;;8.30;;
11471;SDS011;47430;50.808;4.388;2022-12-07T09:39:32;17.83;;;8.47;;
11471;SDS011;47430;50.808;4.388;2022-12-07T09:41:58;15.37;;;8.47;;
11471;SDS011;47430;50.808;4.388;2022-12-07T09:44:25;16.27;;;9.17;;
11471;SDS011;47430;50.808;4.388;2022-12-07T09:46:52;18.50;;;8.00;;
11471;SDS011;47430;50.808;4.388;2022-12-07T09:49:24;15.70;;;7.83;;
11471;SDS011;47430;50.808;4.388;2022-12-07T09:54:50;18.70;;;9.23;;
11471;SDS011;47430;50.808;4.388;2022-12-07T09:57:16;14.90;;;8.40;;
11471;SDS011;47430;50.808;4.388;2022-12-07T09:59:43;14.33;;;6.97;;
11471;SDS011;47430;50.808;4.388;2022-12-07T10:02:28;14.07;;;6.90;;
11471;SDS011;47430;50.808;4.388;2022-12-07T10:04:57;12.17;;;7.40;;
11471;SDS011;47430;50.808;4.388;2022-12-07T10:07:24;16.50;;;8.13;;
11471;SDS011;47430;50.808;4.388;2022-12-07T10:09:50;15.63;;;7.93;;
11471;SDS011;47430;50.808;4.388;2022-12-07T10:12:16;15.27;;;8.30;;
11471;SDS011;47430;50.808;4.388;2022-12-07T10:17:41;18.23;;;8.13;;
11471;SDS011;47430;50.808;4.388;2022-12-07T10:22:59;15.80;;;7.40;;
11471;SDS011;47430;50.808;4.388;2022-12-07T10:25:27;15.07;;;7.97;;
11471;SDS011;47430;50.808;4.388;2022-12-07T10:28:01;15.23;;;8.33;;
11471;SDS011;47430;50.808;4.388;2022-12-07T10:30:28;24.90;;;8.07;;
11471;SDS011;47430;50.808;4.388;2022-12-07T10:32:54;15.17;;;7.93;;
11471;SDS011;47430;50.808;4.388;2022-12-07T10:35:30;18.40;;;7.97;;
11471;SDS011;47430;50.808;4.388;2022-12-07T10:37:57;19.90;;;8.90;;
11471;SDS011;47430;50.808;4.388;2022-12-07T10:43:23;15.23;;;7.90;;
11471;SDS011;47430;50.808;4.388;2022-12-07T10:53:25;16.17;;;8.07;;
11471;SDS011;47430;50.808;4.388;2022-12-07T11:11:20;13.47;;;6.70;;
11471;SDS011;47430;50.808;4.388;2022-12-07T11:13:55;10.67;;;5.50;;
11471;SDS011;47430;50.808;4.388;2022-12-07T11:16:34;12.13;;;5.87;;
11471;SDS011;47430;50.808;4.388;2022-12-07T11:22:42;13.10;;;6.00;;
11471;SDS011;47430;50.808;4.388;2022-12-07T11:25:02;12.57;;;5.80;;
11471;SDS011;47430;50.808;4.388;2022-12-07T11:30:12;13.80;;;5.57;;
11471;SDS011;47430;50.808;4.388;2022-12-07T11:35:21;10.47;;;5.73;;
11471;SDS011;47430;50.808;4.388;2022-12-07T11:37:49;7.80;;;5.20;;
11471;SDS011;47430;50.808;4.388;2022-12-07T11:40:35;11.80;;;5.40;;
11471;SDS011;47430;50.808;4.388;2022-12-07T11:43:22;12.27;;;5.67;;
11471;SDS011;47430;50.808;4.388;2022-12-07T11:46:02;11.93;;;5.67;;
11471;SDS011;47430;50.808;4.388;2022-12-07T11:48:37;13.93;;;5.90;;
11471;SDS011;47430;50.808;4.388;2022-12-07T11:51:04;17.80;;;5.70;;
11471;SDS011;47430;50.808;4.388;2022-12-07T11:53:37;9.03;;;5.03;;
11471;SDS011;47430;50.808;4.388;2022-12-07T12:03:30;7.37;;;3.90;;
11471;SDS011;47430;50.808;4.388;2022-12-07T12:06:00;9.57;;;3.77;;
11471;SDS011;47430;50.808;4.388;2022-12-07T12:08:31;8.53;;;4.13;;
11471;SDS011;47430;50.808;4.388;2022-12-07T12:21:08;5.45;;;2.67;;
11471;SDS011;47430;50.808;4.388;2022-12-07T12:23:37;6.53;;;2.60;;
11471;SDS011;47430;50.808;4.388;2022-12-07T12:26:05;4.50;;;2.57;;
11471;SDS011;47430;50.808;4.388;2022-12-07T12:28:41;4.87;;;2.40;;
11471;SDS011;47430;50.808;4.388;2022-12-07T12:33:51;8.47;;;2.37;;
11471;SDS011;47430;50.808;4.388;2022-12-07T12:36:43;6.03;;;2.43;;
11471;SDS011;47430;50.808;4.388;2022-12-07T12:39:11;6.50;;;2.40;;
11471;SDS011;47430;50.808;4.388;2022-12-07T12:46:46;5.33;;;2.07;;
11471;SDS011;47430;50.808;4.388;2022-12-07T12:49:36;4.03;;;1.93;;
11471;SDS011;47430;50.808;4.388;2022-12-07T12:52:00;5.57;;;2.03;;
11471;SDS011;47430;50.808;4.388;2022-12-07T12:59:25;6.37;;;2.10;;
11471;SDS011;47430;50.808;4.388;2022-12-07T13:01:53;4.43;;;2.30;;
11471;SDS011;47430;50.808;4.388;2022-12-07T13:04:24;3.87;;;1.80;;
11471;SDS011;47430;50.808;4.388;2022-12-07T13:06:51;3.40;;;1.80;;
11471;SDS011;47430;50.808;4.388;2022-12-07T13:09:25;5.03;;;2.40;;
11471;SDS011;47430;50.808;4.388;2022-12-07T13:11:56;3.87;;;2.10;;
11471;SDS011;47430;50.808;4.388;2022-12-07T13:14:43;3.80;;;2.17;;
11471;SDS011;47430;50.808;4.388;2022-12-07T13:18:04;4.60;;;2.23;;
11471;SDS011;47430;50.808;4.388;2022-12-07T13:20:05;6.30;;;2.83;;
11471;SDS011;47430;50.808;4.388;2022-12-07T13:25:07;6.47;;;2.60;;
11471;SDS011;47430;50.808;4.388;2022-12-07T13:27:41;6.20;;;2.67;;
11471;SDS011;47430;50.808;4.388;2022-12-07T13:30:16;9.13;;;3.23;;
11471;SDS011;47430;50.808;4.388;2022-12-07T13:32:43;7.13;;;2.93;;
11471;SDS011;47430;50.808;4.388;2022-12-07T13:35:30;5.23;;;2.87;;
11471;SDS011;47430;50.808;4.388;2022-12-07T13:37:56;4.87;;;2.53;;
11471;SDS011;47430;50.808;4.388;2022-12-07T13:40:23;6.33;;;2.50;;
11471;SDS011;47430;50.808;4.388;2022-12-07T13:45:38;6.57;;;2.87;;
11471;SDS011;47430;50.808;4.388;2022-12-07T13:48:33;9.90;;;3.00;;
11471;SDS011;47430;50.808;4.388;2022-12-07T13:51:02;7.33;;;2.87;;
11471;SDS011;47430;50.808;4.388;2022-12-07T13:53:28;7.23;;;3.00;;
11471;SDS011;47430;50.808;4.388;2022-12-07T13:55:58;4.53;;;2.73;;
11471;SDS011;47430;50.808;4.388;2022-12-07T13:58:25;7.77;;;3.23;;
11471;SDS011;47430;50.808;4.388;2022-12-07T14:00:51;6.93;;;3.93;;
11471;SDS011;47430;50.808;4.388;2022-12-07T14:05:43;5.60;;;3.20;;
11471;SDS011;47430;50.808;4.388;2022-12-07T14:10:37;8.53;;;3.30;;
11471;SDS011;47430;50.808;4.388;2022-12-07T14:13:28;11.40;;;2.93;;
11471;SDS011;47430;50.808;4.388;2022-12-07T14:15:50;4.00;;;2.80;;
11471;SDS011;47430;50.808;4.388;2022-12-07T14:18:29;3.50;;;2.40;;
11471;SDS011;47430;50.808;4.388;2022-12-07T14:23:37;7.33;;;3.03;;
11471;SDS011;47430;50.808;4.388;2022-12-07T14:26:14;7.50;;;2.73;;
11471;SDS011;47430;50.808;4.388;2022-12-07T14:28:42;4.27;;;2.73;;
11471;SDS011;47430;50.808;4.388;2022-12-07T14:31:18;8.93;;;2.80;;
11471;SDS011;47430;50.808;4.388;2022-12-07T14:33:45;5.67;;;2.87;;
11471;SDS011;47430;50.808;4.388;2022-12-07T14:36:12;8.77;;;3.87;;
11471;SDS011;47430;50.808;4.388;2022-12-07T14:38:38;8.13;;;2.90;;
11471;SDS011;47430;50.808;4.388;2022-12-07T14:41:14;6.10;;;2.77;;
11471;SDS011;47430;50.808;4.388;2022-12-07T14:44:00;4.47;;;2.27;;
11471;SDS011;47430;50.808;4.388;2022-12-07T14:46:26;4.77;;;2.10;;
11471;SDS011;47430;50.808;4.388;2022-12-07T14:48:52;3.17;;;1.87;;
11471;SDS011;47430;50.808;4.388;2022-12-07T14:51:18;2.30;;;1.50;;
11471;SDS011;47430;50.808;4.388;2022-12-07T14:53:46;6.27;;;1.60;;
11471;SDS011;47430;50.808;4.388;2022-12-07T14:56:13;3.23;;;1.73;;
11471;SDS011;47430;50.808;4.388;2022-12-07T14:58:40;5.87;;;2.00;;
11471;SDS011;47430;50.808;4.388;2022-12-07T15:01:06;3.40;;;1.47;;
11471;SDS011;47430;50.808;4.388;2022-12-07T15:03:33;3.73;;;1.97;;
11471;SDS011;47430;50.808;4.388;2022-12-07T15:06:00;4.03;;;2.10;;
11471;SDS011;47430;50.808;4.388;2022-12-07T15:08:26;2.33;;;1.63;;
11471;SDS011;47430;50.808;4.388;2022-12-07T15:10:52;3.73;;;2.00;;
11471;SDS011;47430;50.808;4.388;2022-12-07T15:13:18;3.77;;;1.73;;
11471;SDS011;47430;50.808;4.388;2022-12-07T15:16:04;6.53;;;2.47;;
11471;SDS011;47430;50.808;4.388;2022-12-07T15:18:31;3.97;;;2.50;;
11471;SDS011;47430;50.808;4.388;2022-12-07T15:20:57;7.10;;;2.40;;
11471;SDS011;47430;50.808;4.388;2022-12-07T15:23:23;8.30;;;3.07;;
11471;SDS011;47430;50.808;4.388;2022-12-07T15:25:49;3.57;;;2.43;;
11471;SDS011;47430;50.808;4.388;2022-12-07T15:28:15;5.97;;;2.57;;
11471;SDS011;47430;50.808;4.388;2022-12-07T15:30:42;6.50;;;3.17;;
11471;SDS011;47430;50.808;4.388;2022-12-07T15:33:09;3.00;;;2.47;;
11471;SDS011;47430;50.808;4.388;2022-12-07T15:35:39;2.67;;;2.40;;
11471;SDS011;47430;50.808;4.388;2022-12-07T15:38:05;4.17;;;3.07;;
11471;SDS011;47430;50.808;4.388;2022-12-07T15:40:31;3.67;;;2.73;;
11471;SDS011;47430;50.808;4.388;2022-12-07T15:42:57;4.23;;;2.87;;
11471;SDS011;47430;50.808;4.388;2022-12-07T15:45:23;7.60;;;2.80;;
11471;SDS011;47430;50.808;4.388;2022-12-07T15:47:49;8.87;;;3.73;;
11471;SDS011;47430;50.808;4.388;2022-12-07T15:50:16;7.37;;;3.60;;
11471;SDS011;47430;50.808;4.388;2022-12-07T15:52:42;7.57;;;3.63;;
11471;SDS011;47430;50.808;4.388;2022-12-07T15:55:09;6.63;;;3.53;;
11471;SDS011;47430;50.808;4.388;2022-12-07T15:57:36;6.23;;;3.30;;
11471;SDS011;47430;50.808;4.388;2022-12-07T16:00:03;6.43;;;3.17;;
11471;SDS011;47430;50.808;4.388;2022-12-07T16:02:29;6.80;;;3.77;;
11471;SDS011;47430;50.808;4.388;2022-12-07T16:04:55;6.13;;;3.80;;
11471;SDS011;47430;50.808;4.388;2022-12-07T16:07:21;7.43;;;4.27;;
11471;SDS011;47430;50.808;4.388;2022-12-07T16:09:47;9.10;;;4.03;;
11471;SDS011;47430;50.808;4.388;2022-12-07T16:12:14;7.87;;;3.90;;
11471;SDS011;47430;50.808;4.388;2022-12-07T16:14:40;7.47;;;4.20;;
11471;SDS011;47430;50.808;4.388;2022-12-07T16:17:07;11.80;;;5.20;;
11471;SDS011;47430;50.808;4.388;2022-12-07T16:19:34;10.83;;;4.77;;
11471;SDS011;47430;50.808;4.388;2022-12-07T16:22:00;6.43;;;4.00;;
11471;SDS011;47430;50.808;4.388;2022-12-07T16:24:27;8.40;;;3.97;;
11471;SDS011;47430;50.808;4.388;2022-12-07T16:26:53;6.67;;;4.87;;
11471;SDS011;47430;50.808;4.388;2022-12-07T16:29:20;11.20;;;4.73;;
11471;SDS011;47430;50.808;4.388;2022-12-07T16:31:46;8.20;;;4.67;;